Time;durP1;ratioP1;P1;durP2;ratioP2;P2;SDS_P1;SDS_P2;PMS_P1;PMS_P2;Temp;Humidity;BMP_temperature;BMP_pressure;BME280_temperature;BME280_humidity;BME280_pressure;Samples;Min_cycle;Max_cycle;Signal;HPM_P1;HPM_P2
2022/10/27 00:00:14;;;;;;;5.83;3.50;;;16.90;76.50;;;-142.21;100.00;112049.66;5053629;28;20783;-70
2022/10/27 00:02:41;;;;;;;6.97;3.60;;;16.90;76.70;;;-142.21;100.00;112049.66;5046362;28;20523;-71
2022/10/27 00:05:09;;;;;;;6.93;3.07;;;16.90;76.50;;;-142.21;100.00;112049.66;5053580;28;20515;-71
2022/10/27 00:07:37;;;;;;;5.87;3.37;;;16.80;76.30;;;-142.21;100.00;112049.66;5053183;28;20458;-71
2022/10/27 00:10:07;;;;;;;8.27;3.63;;;16.80;76.40;;;-142.21;100.00;112049.66;5054343;28;20455;-71
2022/10/27 00:12:35;;;;;;;8.43;3.73;;;16.80;76.60;;;-142.21;100.00;112049.66;5053583;28;20494;-71
2022/10/27 00:15:03;;;;;;;7.90;3.60;;;16.80;76.50;;;-142.21;100.00;112049.66;5054094;28;20450;-70
2022/10/27 00:17:30;;;;;;;7.07;3.43;;;16.80;76.60;;;-142.21;100.00;112049.66;5053007;28;20448;-70
2022/10/27 00:19:58;;;;;;;6.37;3.50;;;16.80;76.70;;;-142.21;100.00;112049.66;5053496;28;20455;-70
2022/10/27 00:22:24;;;;;;;5.90;3.17;;;16.70;76.50;;;-142.21;100.00;112049.66;5054083;28;20457;-70
2022/10/27 00:24:52;;;;;;;8.53;3.13;;;16.70;76.20;;;-142.21;100.00;112049.66;5055589;28;20484;-70
2022/10/27 00:27:20;;;;;;;5.83;3.70;;;16.70;76.20;;;-142.21;100.00;112049.66;5056627;28;20883;-71
2022/10/27 00:29:47;;;;;;;5.80;3.50;;;16.60;76.10;;;-142.21;100.00;112049.66;5054542;28;20450;-71
2022/10/27 00:32:14;;;;;;;6.60;3.43;;;16.60;76.20;;;-142.21;100.00;112049.66;5054176;28;20447;-70
2022/10/27 00:34:41;;;;;;;8.13;3.47;;;16.50;76.10;;;-142.21;100.00;112049.66;5053770;28;20452;-71
2022/10/27 00:37:08;;;;;;;7.63;3.57;;;16.50;76.20;;;-142.21;100.00;112049.66;5053483;28;20440;-70
2022/10/27 00:39:35;;;;;;;5.33;3.60;;;16.50;76.40;;;-142.21;100.00;112049.66;5051405;28;20452;-70
2022/10/27 00:42:03;;;;;;;6.27;3.67;;;16.50;77.30;;;-142.21;100.00;112049.66;5053815;28;20453;-71
2022/10/27 00:44:35;;;;;;;7.80;3.37;;;16.50;76.30;;;-142.21;100.00;112049.66;5052107;28;20463;-70
2022/10/27 00:47:16;;;;;;;6.27;3.20;;;16.40;76.20;;;-142.21;100.00;112049.66;5052449;28;20428;-71
2022/10/27 00:49:49;;;;;;;5.70;3.30;;;16.40;76.20;;;-142.21;100.00;112049.66;5053503;28;20425;-71
2022/10/27 00:52:25;;;;;;;8.03;3.43;;;16.40;76.20;;;-142.21;100.00;112049.66;5052646;28;20531;-71
2022/10/27 00:54:56;;;;;;;4.17;3.37;;;16.30;76.10;;;-142.21;100.00;112049.66;5053570;28;20466;-70
2022/10/27 00:57:25;;;;;;;5.23;3.13;;;16.30;76.10;;;-142.21;100.00;112049.66;5051830;28;20443;-70
2022/10/27 00:59:53;;;;;;;5.00;2.80;;;16.30;76.00;;;-142.21;100.00;112049.66;5053107;28;20444;-70
2022/10/27 01:02:21;;;;;;;5.40;3.40;;;16.30;76.00;;;-142.21;100.00;112049.66;5045274;28;20527;-70
2022/10/27 01:04:55;;;;;;;4.63;3.07;;;16.20;75.90;;;-142.21;100.00;112049.66;5053125;28;20456;-71
2022/10/27 01:07:24;;;;;;;6.60;3.20;;;16.20;76.00;;;-142.21;100.00;112049.66;5052232;28;20430;-71
2022/10/27 01:09:51;;;;;;;5.50;2.80;;;16.20;76.00;;;-142.21;100.00;112049.66;5052691;28;21063;-69
2022/10/27 01:12:18;;;;;;;7.50;3.23;;;16.20;76.10;;;-142.21;100.00;112049.66;5052507;28;20833;-70
2022/10/27 01:14:46;;;;;;;4.40;2.87;;;16.10;75.90;;;-142.21;100.00;112049.66;5052479;28;20470;-69
2022/10/27 01:17:34;;;;;;;6.63;3.13;;;16.10;76.00;;;-142.21;100.00;112049.66;5052190;28;20483;-70
2022/10/27 01:21:00;;;;;;;7.77;2.83;;;16.10;76.10;;;-142.21;100.00;112049.66;5053118;28;20432;-70
2022/10/27 01:23:47;;;;;;;5.03;3.03;;;16.00;76.30;;;-142.21;100.00;112049.66;5052179;28;20451;-71
2022/10/27 01:26:47;;;;;;;9.43;3.40;;;16.00;76.40;;;-142.21;100.00;112049.66;5008070;28;20490;-70
2022/10/27 01:30:04;;;;;;;4.30;2.50;;;16.00;77.50;;;-142.21;100.00;112049.66;5052068;28;20445;-70
2022/10/27 01:32:52;;;;;;;4.13;2.50;;;16.00;77.20;;;-142.21;100.00;112049.66;5025033;28;20452;-71
2022/10/27 01:35:33;;;;;;;6.10;3.20;;;15.90;77.00;;;-142.21;100.00;112049.66;5052114;28;20452;-70
2022/10/27 01:38:12;;;;;;;6.40;3.00;;;16.00;77.20;;;-142.21;100.00;112049.66;5052441;28;20436;-70
2022/10/27 01:40:49;;;;;;;4.20;2.93;;;15.90;77.40;;;-142.21;100.00;112049.66;5051269;28;20459;-70
2022/10/27 01:43:21;;;;;;;6.87;3.03;;;15.90;77.50;;;-142.21;100.00;112049.66;5052287;28;20434;-71
2022/10/27 01:45:50;;;;;;;4.93;3.10;;;16.00;77.70;;;-142.21;100.00;112049.66;5051858;28;20479;-70
2022/10/27 01:48:20;;;;;;;6.17;3.40;;;16.00;77.70;;;-142.21;100.00;112049.66;5052286;28;20449;-70
2022/10/27 01:50:47;;;;;;;5.10;3.17;;;16.00;77.80;;;-142.21;100.00;112049.66;5051873;28;20444;-71
2022/10/27 01:53:15;;;;;;;5.87;3.30;;;15.90;77.60;;;-142.21;100.00;112049.66;5050792;28;20518;-71
2022/10/27 01:56:04;;;;;;;8.10;3.40;;;15.90;77.60;;;-142.21;100.00;112049.66;5051896;28;20445;-70
2022/10/27 01:59:15;;;;;;;6.03;3.17;;;15.90;77.60;;;-142.21;100.00;112049.66;5049734;28;20444;-70
2022/10/27 02:02:02;;;;;;;3.50;3.13;;;15.90;77.50;;;-142.21;100.00;112049.66;5050636;28;20448;-69
2022/10/27 02:04:49;;;;;;;6.37;3.30;;;15.90;77.20;;;-142.21;100.00;112049.66;5051685;28;20789;-70
2022/10/27 02:07:30;;;;;;;3.97;2.93;;;15.90;77.00;;;-142.21;100.00;112049.66;5052040;28;20547;-71
2022/10/27 02:10:06;;;;;;;7.30;3.23;;;15.90;76.80;;;-142.21;100.00;112049.66;5051969;28;20436;-70
2022/10/27 02:12:38;;;;;;;4.40;2.93;;;15.80;76.90;;;-142.21;100.00;112049.66;5040898;28;20443;-71
2022/10/27 02:15:14;;;;;;;6.83;3.07;;;15.80;76.90;;;-142.21;100.00;112049.66;5052155;28;20436;-70
2022/10/27 02:17:47;;;;;;;6.53;3.27;;;15.80;76.80;;;-142.21;100.00;112049.66;5051409;28;20462;-69
2022/10/27 02:20:23;;;;;;;7.17;3.63;;;15.80;76.90;;;-142.21;100.00;112049.66;5051059;28;20708;-69
2022/10/27 02:22:53;;;;;;;3.70;3.20;;;15.70;76.90;;;-142.21;100.00;112049.66;5052063;28;21014;-70
2022/10/27 02:25:27;;;;;;;8.50;4.13;;;15.70;76.90;;;-142.21;100.00;112049.66;5050778;28;20812;-70
2022/10/27 02:28:02;;;;;;;5.33;3.23;;;15.60;76.80;;;-142.21;100.00;112049.66;5032707;28;20440;-70
2022/10/27 02:30:32;;;;;;;6.30;3.70;;;15.60;76.90;;;-142.21;100.00;112049.66;5049714;28;20436;-69
2022/10/27 02:32:59;;;;;;;8.40;3.53;;;15.60;77.00;;;-142.21;100.00;112049.66;5052999;28;20452;-70
2022/10/27 02:35:29;;;;;;;4.27;3.60;;;15.50;77.10;;;-142.21;100.00;112049.66;5058121;28;20940;-69
2022/10/27 02:37:59;;;;;;;5.30;3.20;;;15.50;77.30;;;-142.21;100.00;112049.66;5059090;28;20449;-70
2022/10/27 02:40:26;;;;;;;3.87;3.20;;;15.50;77.50;;;-142.21;100.00;112049.66;5055213;28;20450;-70
2022/10/27 02:42:53;;;;;;;5.50;3.50;;;15.50;77.90;;;-142.21;100.00;112049.66;5052139;28;20440;-70
2022/10/27 02:45:21;;;;;;;7.87;3.73;;;15.50;78.30;;;-142.21;100.00;112049.66;5051426;28;20487;-69
2022/10/27 02:47:48;;;;;;;4.80;2.97;;;15.50;78.70;;;-142.21;100.00;112049.66;5051220;28;20452;-71
2022/10/27 02:50:15;;;;;;;6.40;3.30;;;15.50;78.30;;;-142.21;100.00;112049.66;5051386;28;20531;-71
2022/10/27 02:52:46;;;;;;;8.13;3.53;;;15.50;78.30;;;-142.21;100.00;112049.66;5050745;28;20444;-71
2022/10/27 02:55:14;;;;;;;8.33;3.50;;;15.50;78.20;;;-142.21;100.00;112049.66;5051621;28;20788;-71
2022/10/27 02:57:43;;;;;;;6.37;3.10;;;15.50;77.90;;;-142.21;100.00;112049.66;5050549;28;20527;-70
2022/10/27 03:00:12;;;;;;;4.40;3.40;;;15.50;78.10;;;-142.21;100.00;112049.66;5051758;28;20447;-70
2022/10/27 03:02:41;;;;;;;5.47;3.30;;;15.40;78.20;;;-142.21;100.00;112049.66;5053525;28;20440;-70
2022/10/27 03:05:09;;;;;;;4.27;3.30;;;15.50;78.30;;;-142.21;100.00;112049.66;5055678;28;20444;-70
2022/10/27 03:07:36;;;;;;;4.97;3.23;;;15.50;77.70;;;-142.21;100.00;112049.66;5054633;28;20984;-70
2022/10/27 03:10:06;;;;;;;5.13;3.40;;;15.50;77.50;;;-142.21;100.00;112049.66;5055188;28;20901;-70
2022/10/27 03:12:33;;;;;;;6.00;2.80;;;15.50;77.50;;;-142.21;100.00;112049.66;5054617;28;20469;-70
2022/10/27 03:15:00;;;;;;;7.83;3.53;;;15.40;77.20;;;-142.21;100.00;112049.66;5055072;28;21000;-70
2022/10/27 03:17:27;;;;;;;6.53;3.30;;;15.40;77.30;;;-142.21;100.00;112049.66;5054558;28;20463;-69
2022/10/27 03:19:54;;;;;;;8.00;3.30;;;15.40;77.20;;;-142.21;100.00;112049.66;5055487;28;20440;-70
2022/10/27 03:22:21;;;;;;;4.30;3.30;;;15.40;77.20;;;-142.21;100.00;112049.66;5055095;28;20448;-70
2022/10/27 03:24:49;;;;;;;7.23;3.30;;;15.40;77.30;;;-142.21;100.00;112049.66;5054768;28;20534;-70
2022/10/27 03:27:17;;;;;;;5.77;3.33;;;15.40;77.50;;;-142.21;100.00;112049.66;5054476;28;20487;-70
2022/10/27 03:29:44;;;;;;;8.20;3.33;;;15.30;77.50;;;-142.21;100.00;112049.66;5054546;28;20452;-70
2022/10/27 03:32:12;;;;;;;6.63;4.07;;;15.30;77.40;;;-142.21;100.00;112049.66;5054897;28;20535;-69
2022/10/27 03:34:39;;;;;;;10.33;3.50;;;15.30;77.40;;;-142.21;100.00;112049.66;5054084;28;20817;-71
2022/10/27 03:37:06;;;;;;;5.10;3.33;;;15.30;77.50;;;-142.21;100.00;112049.66;5055142;28;20836;-70
2022/10/27 03:39:33;;;;;;;7.37;3.67;;;15.30;77.40;;;-142.21;100.00;112049.66;5053737;28;20448;-70
2022/10/27 03:42:00;;;;;;;5.93;3.50;;;15.30;77.50;;;-142.21;100.00;112049.66;5055010;28;20542;-70
2022/10/27 03:44:28;;;;;;;8.30;3.50;;;15.30;77.60;;;-142.21;100.00;112049.66;5054190;28;20448;-70
2022/10/27 03:46:55;;;;;;;4.40;3.60;;;15.30;77.50;;;-142.21;100.00;112049.66;5054572;28;20486;-71
2022/10/27 03:49:23;;;;;;;5.70;3.60;;;15.30;78.00;;;-142.21;100.00;112049.66;5054887;28;20940;-71
2022/10/27 03:51:50;;;;;;;7.07;3.80;;;15.30;78.10;;;-142.21;100.00;112049.66;5054212;28;20444;-70
2022/10/27 03:54:17;;;;;;;8.23;3.77;;;15.30;78.10;;;-142.21;100.00;112049.66;5054145;28;20567;-70
2022/10/27 03:56:44;;;;;;;7.40;3.90;;;15.30;78.10;;;-142.21;100.00;112049.66;5053554;28;20444;-70
2022/10/27 03:59:11;;;;;;;9.03;4.10;;;15.30;78.10;;;-142.21;100.00;112049.66;5054506;28;20463;-71
2022/10/27 04:01:40;;;;;;;6.03;3.90;;;15.30;78.40;;;-142.21;100.00;112049.66;5053198;28;20451;-71
2022/10/27 04:04:07;;;;;;;8.30;3.70;;;15.30;78.30;;;-142.21;100.00;112049.66;5054166;28;20444;-70
2022/10/27 04:06:35;;;;;;;10.73;4.10;;;15.30;78.10;;;-142.21;100.00;112049.66;5053745;28;20488;-70
2022/10/27 04:09:02;;;;;;;5.87;3.50;;;15.20;78.10;;;-142.21;100.00;112049.66;5053634;28;20535;-70
2022/10/27 04:11:29;;;;;;;5.00;3.47;;;15.20;78.50;;;-142.21;100.00;112049.66;5053542;28;20483;-70
2022/10/27 04:13:56;;;;;;;7.20;3.60;;;15.10;78.60;;;-142.21;100.00;112049.66;5053612;28;20446;-70
2022/10/27 04:16:26;;;;;;;5.80;3.80;;;15.00;78.60;;;-142.21;100.00;112049.66;5054017;28;20490;-70
2022/10/27 04:18:55;;;;;;;9.10;3.63;;;15.00;78.90;;;-142.21;100.00;112049.66;5041274;28;20776;-69
2022/10/27 04:21:22;;;;;;;4.73;3.70;;;15.00;78.90;;;-142.21;100.00;112049.66;5052647;28;20520;-69
2022/10/27 04:23:49;;;;;;;9.07;3.40;;;15.00;79.30;;;-142.21;100.00;112049.66;5052701;28;20455;-70
2022/10/27 04:26:16;;;;;;;7.60;4.37;;;15.00;79.50;;;-142.21;100.00;112049.66;5053229;28;20491;-70
2022/10/27 04:28:43;;;;;;;5.77;3.90;;;15.00;79.50;;;-142.21;100.00;112049.66;5053126;28;20445;-70
2022/10/27 04:31:11;;;;;;;5.33;3.57;;;15.00;80.20;;;-142.21;100.00;112049.66;5053904;28;20542;-70
2022/10/27 04:33:38;;;;;;;6.23;3.43;;;15.00;79.20;;;-142.21;100.00;112049.66;5053092;28;20503;-70
2022/10/27 04:36:07;;;;;;;5.27;4.07;;;15.00;78.80;;;-142.21;100.00;112049.66;5053865;28;20480;-71
2022/10/27 04:38:34;;;;;;;7.77;3.60;;;15.00;78.50;;;-142.21;100.00;112049.66;5053311;28;20470;-71
2022/10/27 04:41:02;;;;;;;5.57;3.80;;;15.00;78.40;;;-142.21;100.00;112049.66;5053808;28;20449;-71
2022/10/27 04:43:29;;;;;;;5.97;3.83;;;15.00;78.60;;;-142.21;100.00;112049.66;5053444;28;20448;-70
2022/10/27 04:45:56;;;;;;;6.67;3.37;;;15.00;78.70;;;-142.21;100.00;112049.66;5061484;28;20519;-71
2022/10/27 04:48:24;;;;;;;5.73;3.67;;;15.00;78.40;;;-142.21;100.00;112049.66;5063515;28;20454;-71
2022/10/27 04:50:51;;;;;;;7.27;4.03;;;15.00;78.30;;;-142.21;100.00;112049.66;5054610;28;20527;-71
2022/10/27 04:53:19;;;;;;;9.77;4.37;;;15.00;78.10;;;-142.21;100.00;112049.66;5053942;28;20482;-70
2022/10/27 04:55:46;;;;;;;6.00;4.17;;;14.90;77.80;;;-142.21;100.00;112049.66;5052585;28;21055;-70
2022/10/27 04:58:13;;;;;;;6.17;3.73;;;14.90;77.70;;;-142.21;100.00;112049.66;5053816;28;20527;-69
2022/10/27 05:00:41;;;;;;;8.63;4.23;;;14.90;77.60;;;-142.21;100.00;112049.66;5052003;28;20445;-69
2022/10/27 05:03:09;;;;;;;8.23;3.47;;;14.90;77.70;;;-142.21;100.00;112049.66;5052767;28;20440;-69
2022/10/27 05:05:36;;;;;;;6.73;3.20;;;14.90;77.70;;;-142.21;100.00;112049.66;5051646;28;20452;-69
2022/10/27 05:08:04;;;;;;;6.10;3.37;;;14.90;77.70;;;-142.21;100.00;112049.66;5051895;28;20566;-70
2022/10/27 05:10:34;;;;;;;7.07;3.60;;;14.80;77.60;;;-142.21;100.00;112049.66;5052477;28;20455;-69
2022/10/27 05:13:02;;;;;;;5.63;3.50;;;14.80;77.50;;;-142.21;100.00;112049.66;5052959;28;20451;-69
2022/10/27 05:15:29;;;;;;;4.10;3.33;;;14.80;77.50;;;-142.21;100.00;112049.66;5052074;28;20449;-69
2022/10/27 05:17:56;;;;;;;4.07;3.30;;;14.80;77.50;;;-142.21;100.00;112049.66;5052885;28;20432;-69
2022/10/27 05:20:24;;;;;;;5.00;3.00;;;14.80;77.50;;;-142.21;100.00;112049.66;5053105;28;20452;-70
2022/10/27 05:22:51;;;;;;;5.47;3.57;;;14.80;77.50;;;-142.21;100.00;112049.66;5051476;28;20452;-70
2022/10/27 05:25:18;;;;;;;6.33;3.40;;;14.80;77.50;;;-142.21;100.00;112049.66;5051779;28;20486;-70
2022/10/27 05:27:47;;;;;;;5.33;3.60;;;14.70;77.40;;;-142.21;100.00;112049.66;5052479;28;20853;-70
2022/10/27 05:30:14;;;;;;;6.23;3.63;;;14.70;77.70;;;-142.21;100.00;112049.66;5052357;28;20494;-70
2022/10/27 05:32:42;;;;;;;6.10;3.90;;;14.80;78.00;;;-142.21;100.00;112049.66;5051246;28;20944;-71
2022/10/27 05:35:09;;;;;;;7.43;3.67;;;14.70;77.80;;;-142.21;100.00;112049.66;5052323;28;20857;-70
2022/10/27 05:37:36;;;;;;;10.37;3.70;;;14.70;77.50;;;-142.21;100.00;112049.66;5051033;28;20436;-71
2022/10/27 05:40:05;;;;;;;6.70;3.90;;;14.70;77.50;;;-142.21;100.00;112049.66;5052626;28;20937;-67
2022/10/27 05:42:33;;;;;;;4.60;3.40;;;14.70;77.80;;;-142.21;100.00;112049.66;5051628;28;20448;-71
2022/10/27 05:45:01;;;;;;;6.50;4.07;;;14.70;77.60;;;-142.21;100.00;112049.66;5052348;28;20502;-71
2022/10/27 05:47:28;;;;;;;8.97;3.90;;;14.70;77.90;;;-142.21;100.00;112049.66;5051940;28;20480;-70
2022/10/27 05:49:55;;;;;;;7.03;3.77;;;14.70;78.00;;;-142.21;100.00;112049.66;5052640;28;20486;-71
2022/10/27 05:52:23;;;;;;;7.53;3.93;;;14.70;77.90;;;-142.21;100.00;112049.66;5052077;28;20437;-70
2022/10/27 05:54:50;;;;;;;6.23;3.87;;;14.70;77.60;;;-142.21;100.00;112049.66;5051915;28;20530;-70
2022/10/27 05:57:17;;;;;;;5.30;4.23;;;14.60;77.70;;;-142.21;100.00;112049.66;5052088;28;20520;-71
2022/10/27 05:59:44;;;;;;;4.70;4.03;;;14.60;77.80;;;-142.21;100.00;112049.66;5051733;28;20445;-71
2022/10/27 06:02:12;;;;;;;5.77;3.47;;;14.60;77.90;;;-142.21;100.00;112049.66;5048586;28;20444;-70
2022/10/27 06:04:40;;;;;;;6.00;4.00;;;14.60;78.00;;;-142.21;100.00;112049.66;5051090;28;20459;-69
2022/10/27 06:07:07;;;;;;;5.90;4.30;;;14.60;78.20;;;-142.21;100.00;112049.66;5051927;28;20491;-70
2022/10/27 06:09:34;;;;;;;7.23;4.30;;;14.60;78.50;;;-142.21;100.00;112049.66;5051318;28;20479;-71
2022/10/27 06:12:01;;;;;;;6.90;4.00;;;14.60;78.30;;;-142.21;100.00;112049.66;5050925;28;20441;-70
2022/10/27 06:14:28;;;;;;;8.43;4.20;;;14.50;78.30;;;-142.21;100.00;112049.66;5051331;28;20989;-71
2022/10/27 06:16:55;;;;;;;4.40;3.77;;;14.50;78.70;;;-142.21;100.00;112049.66;5051272;28;20444;-70
2022/10/27 06:19:24;;;;;;;9.13;4.00;;;14.50;79.50;;;-142.21;100.00;112049.66;5052288;28;20440;-70
2022/10/27 06:21:51;;;;;;;4.93;4.37;;;14.50;78.80;;;-142.21;100.00;112049.66;5051489;28;20447;-71
2022/10/27 06:24:18;;;;;;;6.90;4.07;;;14.50;78.70;;;-142.21;100.00;112049.66;5052170;28;20798;-70
2022/10/27 06:26:45;;;;;;;6.37;3.97;;;14.60;78.60;;;-142.21;100.00;112049.66;5050019;28;20491;-71
2022/10/27 06:29:12;;;;;;;6.90;4.30;;;14.60;78.50;;;-142.21;100.00;112049.66;5052192;28;20444;-72
2022/10/27 06:31:41;;;;;;;8.83;4.50;;;14.60;78.50;;;-142.21;100.00;112049.66;5041686;28;20449;-69
2022/10/27 06:34:10;;;;;;;7.00;4.57;;;14.60;78.40;;;-142.21;100.00;112049.66;5049826;28;20437;-71
2022/10/27 06:36:38;;;;;;;5.67;3.67;;;14.70;78.60;;;-142.21;100.00;112049.66;5048774;28;20884;-69
2022/10/27 06:39:05;;;;;;;5.20;3.87;;;14.60;78.50;;;-142.21;100.00;112049.66;5055871;28;20496;-67
2022/10/27 06:41:32;;;;;;;8.47;4.47;;;14.60;78.70;;;-142.21;100.00;112049.66;5055431;28;20936;-69
2022/10/27 06:44:00;;;;;;;4.77;3.93;;;14.70;78.90;;;-142.21;100.00;112049.66;5055903;28;20862;-69
2022/10/27 06:46:27;;;;;;;8.30;4.20;;;14.70;79.10;;;-142.21;100.00;112049.66;5054928;28;20452;-69
2022/10/27 06:48:54;;;;;;;5.47;4.57;;;14.70;79.40;;;-142.21;100.00;112049.66;5055336;28;20452;-74
2022/10/27 06:51:21;;;;;;;6.53;4.23;;;14.70;78.80;;;-142.21;100.00;112049.66;5046661;28;20452;-69
2022/10/27 06:53:50;;;;;;;5.77;4.30;;;14.80;79.00;;;-142.21;100.00;112049.66;5046628;28;20468;-74
2022/10/27 06:56:18;;;;;;;7.13;4.63;;;14.80;78.80;;;-142.21;100.00;112049.66;5048509;28;20963;-71
2022/10/27 06:58:48;;;;;;;4.70;3.60;;;14.90;78.90;;;-142.21;100.00;112049.66;5054464;28;20819;-70
2022/10/27 07:01:15;;;;;;;6.17;4.03;;;14.90;78.90;;;-142.21;100.00;112049.66;5054699;28;20478;-71
2022/10/27 07:03:42;;;;;;;6.77;3.83;;;14.90;78.90;;;-142.21;100.00;112049.66;5053914;28;20502;-70
2022/10/27 07:06:09;;;;;;;5.80;4.40;;;14.90;79.00;;;-142.21;100.00;112049.66;5052393;28;20494;-70
2022/10/27 07:08:37;;;;;;;6.73;4.20;;;15.00;79.30;;;-142.21;100.00;112049.66;5034876;28;20516;-70
2022/10/27 07:11:06;;;;;;;10.07;3.93;;;15.00;80.20;;;-142.21;100.00;112049.66;5044402;28;20486;-70
2022/10/27 07:13:33;;;;;;;5.77;3.97;;;15.10;79.70;;;-142.21;100.00;112049.66;5055214;28;20449;-70
2022/10/27 07:16:00;;;;;;;11.27;4.77;;;15.10;79.60;;;-142.21;100.00;112049.66;5054490;28;20927;-69
2022/10/27 07:18:28;;;;;;;7.33;4.97;;;15.20;79.80;;;-142.21;100.00;112049.66;5044159;28;20438;-70
2022/10/27 07:20:55;;;;;;;6.90;5.07;;;15.20;79.60;;;-142.21;100.00;112049.66;5054293;28;20440;-72
2022/10/27 07:23:22;;;;;;;6.53;5.30;;;15.30;79.80;;;-142.21;100.00;112049.66;5040030;28;20528;-70
2022/10/27 07:25:50;;;;;;;8.63;5.43;;;15.40;80.10;;;-142.21;100.00;112049.66;5034371;28;20480;-70
2022/10/27 07:28:18;;;;;;;15.47;7.70;;;15.40;80.40;;;-142.21;100.00;112049.66;5034198;28;20572;-71
2022/10/27 07:30:47;;;;;;;9.43;6.57;;;15.40;80.70;;;-142.21;100.00;112049.66;5045273;28;20530;-70
2022/10/27 07:33:14;;;;;;;9.47;4.77;;;15.50;81.10;;;-142.21;100.00;112049.66;5053424;28;20454;-71
2022/10/27 07:35:47;;;;;;;6.47;4.90;;;15.60;81.30;;;-142.21;100.00;112049.66;5053636;28;20891;-71
2022/10/27 07:38:15;;;;;;;8.07;4.73;;;15.70;81.70;;;-142.21;100.00;112049.66;5055058;28;20425;-71
2022/10/27 07:40:42;;;;;;;6.83;5.03;;;15.70;81.80;;;-142.21;100.00;112049.66;5053955;28;20503;-70
2022/10/27 07:43:10;;;;;;;7.00;4.90;;;15.80;81.80;;;-142.21;100.00;112049.66;5053466;28;20785;-70
2022/10/27 07:45:41;;;;;;;7.73;5.83;;;16.00;82.10;;;-142.21;100.00;112049.66;5037489;28;21114;-72
2022/10/27 07:48:14;;;;;;;5.60;4.17;;;16.10;81.70;;;-142.21;100.00;112049.66;5034091;28;20556;-71
2022/10/27 07:50:42;;;;;;;8.00;4.90;;;16.20;81.60;;;-142.21;100.00;112049.66;5034256;28;20436;-70
2022/10/27 07:53:10;;;;;;;9.73;4.60;;;16.30;81.40;;;-142.21;100.00;112049.66;5049810;28;20498;-70
2022/10/27 07:55:38;;;;;;;8.57;5.67;;;16.40;81.70;;;-142.21;100.00;112049.66;5053601;28;20444;-71
2022/10/27 07:58:09;;;;;;;8.73;4.50;;;16.50;81.80;;;-142.21;100.00;112049.66;5054432;28;20446;-70
2022/10/27 08:00:40;;;;;;;8.33;5.30;;;16.50;81.30;;;-142.21;100.00;112049.66;5053590;28;20530;-70
2022/10/27 08:03:11;;;;;;;6.17;4.27;;;16.60;81.60;;;-142.21;100.00;112049.66;5053702;28;20446;-70
2022/10/27 08:05:38;;;;;;;5.47;4.27;;;16.60;81.30;;;-142.21;100.00;112049.66;5053501;28;20463;-70
2022/10/27 08:08:07;;;;;;;9.13;4.93;;;16.80;81.20;;;-142.21;100.00;112049.66;5053886;28;20571;-70
2022/10/27 08:10:38;;;;;;;6.83;4.63;;;17.00;81.00;;;-142.21;100.00;112049.66;5053907;28;20995;-70
2022/10/27 08:13:07;;;;;;;9.93;4.70;;;17.10;80.60;;;-142.21;100.00;112049.66;5053193;28;20439;-71
2022/10/27 08:15:41;;;;;;;8.23;3.87;;;17.20;80.20;;;-142.21;100.00;112049.66;5051564;28;20444;-70
2022/10/27 08:18:10;;;;;;;7.47;3.23;;;17.30;80.20;;;-142.21;100.00;112049.66;5053676;28;20464;-70
2022/10/27 08:20:41;;;;;;;3.40;2.80;;;17.40;80.20;;;-142.21;100.00;112049.66;5052727;28;20444;-71
2022/10/27 08:23:12;;;;;;;3.83;3.07;;;17.60;80.00;;;-142.21;100.00;112049.66;5053926;28;20281;-72
2022/10/27 08:25:40;;;;;;;4.70;2.87;;;17.70;79.50;;;-142.21;100.00;112049.66;5051492;28;20233;-72
2022/10/27 08:28:07;;;;;;;5.83;3.10;;;17.80;79.10;;;-142.21;100.00;112049.66;5053268;28;21251;-71
2022/10/27 08:30:34;;;;;;;5.03;2.80;;;17.90;78.90;;;-142.21;100.00;112049.66;5054106;28;20531;-70
2022/10/27 08:33:05;;;;;;;5.70;2.80;;;18.00;78.60;;;-142.21;100.00;112049.66;5052683;28;20536;-71
2022/10/27 08:35:33;;;;;;;3.47;3.03;;;18.00;78.40;;;-142.21;100.00;112049.66;5053996;28;20194;-70
2022/10/27 08:38:05;;;;;;;5.07;3.33;;;18.20;78.50;;;-142.21;100.00;112049.66;5052996;28;20440;-70
2022/10/27 08:40:46;;;;;;;3.37;2.77;;;18.20;77.90;;;-142.21;100.00;112049.66;5053504;28;20285;-70
2022/10/27 08:44:07;;;;;;;5.70;2.77;;;18.40;78.40;;;-142.21;100.00;112049.66;5052792;28;20281;-70
2022/10/27 08:46:43;;;;;;;6.60;3.27;;;18.60;77.60;;;-142.21;100.00;112049.66;5051735;28;20343;-70
2022/10/27 08:49:44;;;;;;;4.43;2.80;;;18.90;77.70;;;-142.21;100.00;112049.66;5053287;28;20210;-70
2022/10/27 08:52:17;;;;;;;4.57;2.63;;;19.00;77.70;;;-142.21;100.00;112049.66;5043324;28;20205;-69
2022/10/27 08:54:49;;;;;;;3.90;2.80;;;19.20;76.60;;;-142.21;100.00;112049.66;5052741;28;20228;-71
2022/10/27 08:57:26;;;;;;;3.97;2.70;;;19.30;76.10;;;-142.21;100.00;112049.66;5052948;28;20190;-71
2022/10/27 08:59:54;;;;;;;5.27;3.13;;;19.50;76.00;;;-142.21;100.00;112049.66;5050637;28;20198;-71
2022/10/27 09:02:56;;;;;;;3.83;2.80;;;19.60;76.80;;;-142.21;100.00;112049.66;5053096;28;20201;-71
2022/10/27 09:05:50;;;;;;;4.27;2.80;;;19.80;76.80;;;-142.21;100.00;112049.66;5053240;28;20296;-70
2022/10/27 09:08:29;;;;;;;5.43;2.93;;;20.00;75.00;;;-142.21;100.00;112049.66;5062044;28;20202;-70
2022/10/27 09:11:12;;;;;;;4.97;3.67;;;20.10;75.00;;;-142.21;100.00;112049.66;5060068;28;20196;-70
2022/10/27 09:14:08;;;;;;;4.27;3.03;;;20.30;74.50;;;-142.21;100.00;112049.66;5053698;28;20191;-72
2022/10/27 09:16:43;;;;;;;7.87;4.43;;;20.40;75.00;;;-142.21;100.00;112049.66;5053701;28;20229;-71
2022/10/27 09:19:18;;;;;;;7.93;4.90;;;20.60;73.90;;;-142.21;100.00;112049.66;5052217;28;20221;-71
2022/10/27 09:21:47;;;;;;;8.70;4.53;;;20.60;73.90;;;-142.21;100.00;112049.66;5052462;28;20208;-70
2022/10/27 09:24:18;;;;;;;8.03;4.83;;;20.80;73.70;;;-142.21;100.00;112049.66;5052632;28;20301;-71
2022/10/27 09:26:49;;;;;;;8.63;4.27;;;20.80;73.70;;;-142.21;100.00;112049.66;5052062;28;20230;-71
2022/10/27 09:29:21;;;;;;;5.20;4.67;;;21.00;73.80;;;-142.21;100.00;112049.66;5052681;28;20272;-70
2022/10/27 09:31:54;;;;;;;6.20;4.40;;;21.10;73.10;;;-142.21;100.00;112049.66;5051887;28;20272;-72
2022/10/27 09:34:26;;;;;;;6.07;4.57;;;21.20;73.30;;;-142.21;98.84;112049.66;5052872;28;20597;-70
2022/10/27 09:36:57;;;;;;;7.40;5.03;;;21.30;72.30;;;-142.21;99.23;112049.66;5051855;28;20641;-71
2022/10/27 09:39:24;;;;;;;8.93;4.93;;;21.40;72.10;;;-142.21;97.90;112049.66;5052457;28;20301;-70
2022/10/27 09:41:53;;;;;;;6.60;4.77;;;21.50;71.90;;;-142.21;97.48;112049.66;5052862;28;20225;-70
2022/10/27 09:44:25;;;;;;;7.87;5.57;;;21.60;71.60;;;-142.21;96.00;112049.66;5052503;28;20212;-72
2022/10/27 09:46:55;;;;;;;7.13;5.03;;;21.70;70.70;;;-142.21;95.87;112049.66;5051978;28;20194;-72
2022/10/27 09:49:31;;;;;;;6.57;4.27;;;21.70;70.10;;;-142.21;95.23;112049.66;5052148;28;20216;-71
2022/10/27 09:52:10;;;;;;;5.73;3.77;;;21.70;70.30;;;-142.21;93.77;112049.66;5049410;28;20193;-70
2022/10/27 09:54:42;;;;;;;6.63;4.80;;;22.00;69.90;;;-142.21;94.01;112049.66;5052206;28;20222;-70
2022/10/27 09:57:14;;;;;;;6.80;4.50;;;22.10;69.70;;;-142.21;93.13;112049.66;5052553;28;20198;-71
2022/10/27 09:59:42;;;;;;;10.87;4.27;;;22.10;68.80;;;-142.21;93.01;112049.66;5033206;28;20198;-71
2022/10/27 10:02:26;;;;;;;7.53;4.03;;;22.30;69.20;;;-142.21;92.87;112049.66;5050686;28;20304;-72
2022/10/27 10:04:54;;;;;;;6.03;3.93;;;22.40;68.70;;;-142.21;91.75;112049.66;5051388;28;20197;-71
2022/10/27 10:07:36;;;;;;;8.67;4.00;;;22.60;68.60;;;-142.21;89.28;112049.66;5052740;28;20216;-72